createdAt,value
2023-01-21T00:04:47.990Z,102679.00
2023-01-21T00:09:54.225Z,102684.00
2023-01-21T00:14:58.712Z,102701.50
2023-01-21T00:20:01.738Z,102697.69
2023-01-21T00:25:05.161Z,102716.69
2023-01-21T00:30:11.216Z,102727.72
2023-01-21T00:35:14.534Z,102726.09
2023-01-21T00:40:18.359Z,102737.19
2023-01-21T00:45:22.978Z,102748.78
2023-01-21T00:50:26.021Z,102751.94
2023-01-21T00:55:29.117Z,102743.47
2023-01-21T01:00:33.813Z,102755.66
2023-01-21T01:05:37.276Z,102766.13
2023-01-21T01:10:40.290Z,102759.69
2023-01-21T01:15:45.004Z,102775.00
2023-01-21T01:20:48.114Z,102782.56
2023-01-21T01:25:58.655Z,102795.25
2023-01-21T01:31:06.104Z,102803.75
2023-01-21T01:36:13.573Z,102811.50
2023-01-21T01:41:21.639Z,102818.88
2023-01-21T01:46:27.480Z,102827.31
2023-01-21T01:51:40.015Z,102838.41
2023-01-21T01:56:46.465Z,102839.69
2023-01-21T02:01:51.581Z,102845.41
2023-01-21T02:06:56.991Z,102857.19
2023-01-21T02:12:02.100Z,102866.03
2023-01-21T02:17:23.287Z,102871.00
2023-01-21T02:22:33.246Z,102879.47
2023-01-21T02:27:47.856Z,102880.00
2023-01-21T02:33:27.280Z,102884.44
2023-01-21T02:38:39.376Z,102882.78
2023-01-21T02:43:51.557Z,102889.78
2023-01-21T02:49:00.639Z,102899.00
2023-01-21T02:54:16.230Z,102902.84
2023-01-21T02:59:19.798Z,102912.06
2023-01-21T03:04:44.443Z,102921.97
2023-01-21T03:09:49.649Z,102924.94
2023-01-21T03:15:19.472Z,102934.31
2023-01-21T03:20:27.133Z,102938.38
2023-01-21T03:25:34.614Z,102940.38
2023-01-21T03:30:41.582Z,102949.59
2023-01-21T03:35:47.863Z,102954.75
2023-01-21T03:40:56.292Z,102954.91
2023-01-21T03:46:05.730Z,102958.75
2023-01-21T03:51:14.084Z,102959.84
2023-01-21T03:56:18.460Z,102963.88
2023-01-21T04:01:22.974Z,102971.03
2023-01-21T04:06:26.032Z,102974.13
2023-01-21T04:11:30.479Z,102958.44
2023-01-21T04:16:33.587Z,102979.97
2023-01-21T04:21:36.910Z,102983.81
2023-01-21T04:26:41.385Z,102994.25
2023-01-21T04:31:44.694Z,103004.56
2023-01-21T04:36:48.093Z,103007.50
2023-01-21T04:41:52.549Z,102997.19
2023-01-21T04:46:55.637Z,103004.53
2023-01-21T04:51:58.664Z,103001.91
2023-01-21T04:57:03.049Z,103018.66
2023-01-21T05:02:05.982Z,103025.44
2023-01-21T05:07:09.363Z,103028.00
2023-01-21T05:12:13.876Z,103028.56
2023-01-21T05:17:16.888Z,103023.22
2023-01-21T05:22:20.325Z,103019.50
2023-01-21T05:27:24.891Z,103036.09
2023-01-21T05:32:27.799Z,103031.66
2023-01-21T05:37:30.756Z,103040.50
2023-01-21T05:42:35.259Z,103059.25
2023-01-21T05:47:38.418Z,103051.84
2023-01-21T05:52:41.423Z,103060.28
2023-01-21T05:57:45.803Z,103063.63
2023-01-21T06:02:48.823Z,103065.78
2023-01-21T06:07:53.011Z,103066.91
2023-01-21T06:12:58.073Z,103073.50
2023-01-21T06:18:01.249Z,103079.72
2023-01-21T06:23:04.491Z,103084.66
2023-01-21T06:28:10.316Z,103100.44
2023-01-21T06:33:13.293Z,103113.72
2023-01-21T06:38:16.513Z,103127.47
2023-01-21T06:43:21.034Z,103123.06
2023-01-21T06:48:25.054Z,103140.16
2023-01-21T06:53:28.213Z,103144.88
2023-01-21T06:58:32.575Z,103143.56
2023-01-21T07:03:35.634Z,103163.75
2023-01-21T07:08:38.674Z,103167.59
2023-01-21T07:13:43.098Z,103171.59
2023-01-21T07:18:46.114Z,103186.13
2023-01-21T07:23:49.398Z,103194.94
2023-01-21T07:28:56.509Z,103198.22
2023-01-21T07:33:59.611Z,103210.69
2023-01-21T07:39:02.933Z,103203.72
2023-01-21T07:44:07.368Z,103214.78
2023-01-21T07:49:12.943Z,103217.50
2023-01-21T07:54:16.730Z,103238.19
2023-01-21T07:59:23.864Z,103248.63
2023-01-21T08:04:27.150Z,103251.59
2023-01-21T08:09:30.318Z,103255.00
2023-01-21T08:14:34.974Z,103251.31
2023-01-21T08:19:38.196Z,103247.94
2023-01-21T08:24:41.280Z,103260.53
2023-01-21T08:29:46.883Z,103262.69
2023-01-21T08:34:53.819Z,103284.09
2023-01-21T08:39:56.875Z,103292.06
2023-01-21T08:45:01.388Z,103288.56
2023-01-21T08:50:05.385Z,103297.41
2023-01-21T08:55:08.966Z,103312.25
2023-01-21T09:00:15.580Z,103320.00
2023-01-21T09:05:19.373Z,103326.81
2023-01-21T09:10:41.622Z,103336.22
2023-01-21T09:15:46.179Z,103351.06
2023-01-21T09:20:49.418Z,103343.72
2023-01-21T09:25:53.076Z,103346.06
2023-01-21T09:30:59.306Z,103356.09
2023-01-21T09:36:05.513Z,103360.00
2023-01-21T09:41:20.268Z,103357.16
2023-01-21T09:46:35.580Z,103372.47
2023-01-21T09:51:47.913Z,103374.69
2023-01-21T09:57:01.599Z,103378.75
2023-01-21T10:02:15.707Z,103366.44
2023-01-21T10:07:25.111Z,103372.94
2023-01-21T10:12:43.715Z,103384.75
2023-01-21T10:17:58.120Z,103376.28
2023-01-21T10:23:06.619Z,103358.22
2023-01-21T10:28:15.637Z,103358.88
2023-01-21T10:33:24.036Z,103355.50
2023-01-21T10:38:38.779Z,103366.28
2023-01-21T10:43:48.679Z,103373.63
2023-01-21T10:48:58.089Z,103371.03
2023-01-21T10:54:07.301Z,103376.78
2023-01-21T10:59:15.081Z,103339.75
2023-01-21T11:04:25.501Z,103385.66
2023-01-21T11:09:32.649Z,103387.28
2023-01-21T11:14:35.941Z,103384.88
2023-01-21T11:19:40.609Z,103391.72
2023-01-21T11:24:45.788Z,103391.94
2023-01-21T11:29:50.221Z,103389.78
2023-01-21T11:35:05.001Z,103393.09
2023-01-21T11:40:17.282Z,103384.22
2023-01-21T11:45:29.038Z,103390.34
2023-01-21T11:50:35.446Z,103391.63
2023-01-21T11:55:41.652Z,103389.59
2023-01-21T12:00:47.524Z,103377.94
2023-01-21T12:05:54.346Z,103389.19
2023-01-21T12:11:02.130Z,103382.16
2023-01-21T12:16:29.092Z,103374.41
2023-01-21T12:21:44.838Z,103378.25
2023-01-21T12:26:57.641Z,103368.06
2023-01-21T12:32:06.086Z,103367.38
2023-01-21T12:37:19.281Z,103366.78
2023-01-21T12:42:31.651Z,103367.38
2023-01-21T12:47:43.490Z,103368.47
2023-01-21T12:52:58.320Z,103360.91
2023-01-21T12:58:06.012Z,103353.66
2023-01-21T13:03:21.227Z,103339.44
2023-01-21T13:08:48.625Z,103346.69
2023-01-21T13:14:21.063Z,103345.03
2023-01-21T13:19:24.528Z,103353.66
2023-01-21T13:24:34.669Z,103353.09
2023-01-21T13:29:46.896Z,103347.72
2023-01-21T13:34:58.624Z,103343.53
2023-01-21T13:40:23.191Z,103344.25
2023-01-21T13:45:38.587Z,103353.72
2023-01-21T13:50:56.651Z,103355.94
2023-01-21T13:56:20.417Z,103359.06
2023-01-21T14:01:28.165Z,103370.38
2023-01-21T14:06:37.696Z,103378.13
2023-01-21T14:11:49.452Z,103382.34
2023-01-21T14:17:30.308Z,103390.69
2023-01-21T14:22:55.029Z,103396.41
2023-01-21T14:28:10.088Z,103395.66
2023-01-21T14:33:17.120Z,103400.84
2023-01-21T14:38:30.058Z,103408.78
2023-01-21T14:43:53.591Z,103397.91
2023-01-21T14:49:08.395Z,103404.91
2023-01-21T14:54:14.880Z,103420.25
2023-01-21T14:59:34.415Z,103426.53
2023-01-21T15:04:40.236Z,103430.41
2023-01-21T15:09:48.310Z,103427.25
2023-01-21T15:14:58.242Z,103436.88
2023-01-21T15:20:39.822Z,103428.03
2023-01-21T15:26:03.521Z,103440.53
2023-01-21T15:31:10.588Z,103443.53
2023-01-21T15:36:22.334Z,103451.28
2023-01-21T15:41:38.237Z,103444.59
2023-01-21T15:46:52.442Z,103464.56
2023-01-21T15:52:05.791Z,103465.47
2023-01-21T15:57:23.501Z,103473.97
2023-01-21T16:02:31.950Z,103479.69
2023-01-21T16:07:47.000Z,103478.00
2023-01-21T16:13:05.753Z,103457.50
2023-01-21T16:18:27.114Z,103481.53
2023-01-21T16:23:35.276Z,103470.59
2023-01-21T16:28:43.402Z,103472.84
2023-01-21T16:33:48.306Z,103478.53
2023-01-21T16:38:51.672Z,103479.06
2023-01-21T16:44:01.273Z,103480.00
2023-01-21T16:49:13.376Z,103484.03
2023-01-21T16:54:24.274Z,103491.59
2023-01-21T16:59:29.456Z,103490.50
2023-01-21T17:04:33.968Z,103478.81
2023-01-21T17:09:38.089Z,103494.34
2023-01-21T17:14:41.612Z,103492.47
2023-01-21T17:19:46.160Z,103498.75
2023-01-21T17:25:00.907Z,103503.38
2023-01-21T17:30:27.900Z,103504.63
2023-01-21T17:35:34.077Z,103494.66
2023-01-21T17:40:41.177Z,103503.69
2023-01-21T17:45:47.023Z,103512.13
2023-01-21T17:50:52.644Z,103514.47
2023-01-21T17:56:02.209Z,103511.88
2023-01-21T18:01:06.040Z,103512.06
2023-01-21T18:06:18.370Z,103521.28
2023-01-21T18:11:24.486Z,103519.03
2023-01-21T18:16:27.562Z,103514.31
2023-01-21T18:21:31.976Z,103514.84
2023-01-21T18:26:35.170Z,103525.56
2023-01-21T18:31:38.883Z,103525.03
2023-01-21T18:36:43.771Z,103524.72
2023-01-21T18:41:47.584Z,103534.78
2023-01-21T18:46:53.383Z,103539.47
2023-01-21T18:51:57.871Z,103532.25
2023-01-21T18:57:01.243Z,103523.59
2023-01-21T19:02:04.556Z,103536.53
2023-01-21T19:07:15.112Z,103530.66
2023-01-21T19:12:21.133Z,103543.16
2023-01-21T19:17:26.946Z,103519.13
2023-01-21T19:22:31.556Z,103532.06
2023-01-21T19:27:40.031Z,103527.22
2023-01-21T19:32:43.503Z,103530.47
2023-01-21T19:37:50.227Z,103536.31
2023-01-21T19:42:54.282Z,103536.53
2023-01-21T19:47:57.669Z,103536.72
2023-01-21T19:53:02.018Z,103542.28
2023-01-21T19:58:07.922Z,103533.97
2023-01-21T20:03:13.072Z,103538.31
2023-01-21T20:08:21.875Z,103529.22
2023-01-21T20:13:26.177Z,103532.66
2023-01-21T20:18:32.588Z,103530.03
2023-01-21T20:23:39.010Z,103530.03
2023-01-21T20:28:47.737Z,103536.28
2023-01-21T20:33:50.775Z,103536.09
2023-01-21T20:38:56.070Z,103530.28
2023-01-21T20:43:59.309Z,103538.59
2023-01-21T20:49:02.609Z,103542.25
2023-01-21T20:54:06.972Z,103547.41
2023-01-21T20:59:10.853Z,103550.50
2023-01-21T21:04:13.873Z,103549.00
2023-01-21T21:09:19.609Z,103558.03
2023-01-21T21:14:24.290Z,103560.34
2023-01-21T21:19:27.354Z,103555.28
2023-01-21T21:24:32.258Z,103556.44
2023-01-21T21:29:35.320Z,103546.88
2023-01-21T21:34:38.334Z,103552.47
2023-01-21T21:39:42.829Z,103546.47
2023-01-21T21:44:46.158Z,103543.13
2023-01-21T21:49:49.225Z,103542.03
2023-01-21T21:54:54.930Z,103545.22
2023-01-21T21:59:58.044Z,103535.06
2023-01-21T22:05:01.172Z,103521.59
2023-01-21T22:10:06.586Z,103533.41
2023-01-21T22:15:10.746Z,103528.81
2023-01-21T22:20:14.188Z,103534.13
2023-01-21T22:25:19.019Z,103519.69
2023-01-21T22:30:23.022Z,103527.22
2023-01-21T22:35:26.010Z,103534.25
2023-01-21T22:40:33.975Z,103518.91
2023-01-21T22:45:37.191Z,103520.47
2023-01-21T22:50:41.293Z,103521.94
2023-01-21T22:55:45.637Z,103536.34
2023-01-21T23:00:48.825Z,103523.59
2023-01-21T23:05:55.012Z,103533.97
2023-01-21T23:11:03.097Z,103527.34
2023-01-21T23:16:07.715Z,103518.63
2023-01-21T23:21:14.953Z,103513.47
2023-01-21T23:26:20.322Z,103515.53
2023-01-21T23:31:24.298Z,103511.09
2023-01-21T23:36:27.611Z,103506.81
2023-01-21T23:41:32.037Z,103510.50
2023-01-21T23:46:35.520Z,103502.22
2023-01-21T23:51:40.200Z,103493.91
2023-01-21T23:56:44.578Z,103514.19
